Time;durP1;ratioP1;P1;durP2;ratioP2;P2;SDS_P1;SDS_P2;PMS_P1;PMS_P2;Temp;Humidity;BMP_temperature;BMP_pressure;BME280_temperature;BME280_humidity;BME280_pressure;Samples;Min_cycle;Max_cycle;Signal;HPM_P1;HPM_P2
2023/08/17 03:01:02;;;;;;;2.67;2.10;;;25.00;61.20;;;;;;5655203;23;45917;-84
2023/08/17 03:03:28;;;;;;;2.95;2.65;;;25.00;61.30;;;;;;4944618;28;47393;-84
2023/08/17 03:05:53;;;;;;;2.97;2.25;;;25.00;61.30;;;;;;4923119;28;44809;-84
2023/08/17 03:08:19;;;;;;;2.22;2.03;;;25.00;61.20;;;;;;4924014;28;44850;-83
2023/08/17 03:10:44;;;;;;;2.88;2.28;;;25.00;61.20;;;;;;4938512;28;45738;-84
2023/08/17 03:13:10;;;;;;;2.72;2.40;;;25.00;61.20;;;;;;4931581;28;47193;-83
2023/08/17 03:15:39;;;;;;;2.95;2.55;;;25.00;61.20;;;;;;4926069;28;45459;-84
2023/08/17 03:18:06;;;;;;;2.42;2.00;;;25.00;61.20;;;;;;4933967;28;45084;-83
2023/08/17 03:20:31;;;;;;;3.05;2.50;;;24.90;61.20;;;;;;4907418;28;45155;-83
2023/08/17 03:22:57;;;;;;;2.95;2.42;;;25.00;61.20;;;;;;4940443;28;45676;-86
2023/08/17 03:25:22;;;;;;;2.58;2.28;;;25.00;61.20;;;;;;4944155;28;45775;-83
2023/08/17 03:27:48;;;;;;;2.72;2.35;;;25.00;61.20;;;;;;4941335;28;45224;-84
2023/08/17 03:30:13;;;;;;;3.10;2.15;;;25.00;61.20;;;;;;4915364;28;45548;-85
2023/08/17 03:32:40;;;;;;;2.95;1.90;;;25.00;61.20;;;;;;4928205;28;47910;-84
2023/08/17 03:35:06;;;;;;;2.42;2.00;;;25.00;61.20;;;;;;4927838;28;45233;-85
2023/08/17 03:37:32;;;;;;;2.83;2.40;;;25.00;61.20;;;;;;4941542;28;45389;-83
2023/08/17 03:39:57;;;;;;;3.60;2.58;;;25.00;61.20;;;;;;4941796;28;45315;-83
2023/08/17 03:42:23;;;;;;;3.00;2.10;;;25.00;61.20;;;;;;4922771;28;46298;-83
2023/08/17 03:44:48;;;;;;;2.53;2.00;;;25.00;61.20;;;;;;4924610;28;45223;-83
2023/08/17 03:47:14;;;;;;;2.58;2.15;;;25.00;61.20;;;;;;4915896;28;45380;-83
2023/08/17 03:49:40;;;;;;;2.72;2.35;;;25.00;61.20;;;;;;4924924;28;45747;-83
2023/08/17 03:52:05;;;;;;;2.50;2.30;;;25.00;61.20;;;;;;4946726;28;46533;-84
2023/08/17 03:54:31;;;;;;;4.13;1.92;;;25.00;61.20;;;;;;4939385;28;45164;-84
2023/08/17 03:56:56;;;;;;;2.72;2.20;;;25.00;61.20;;;;;;4953162;28;45193;-83
2023/08/17 03:59:22;;;;;;;2.53;2.20;;;24.90;61.10;;;;;;4944469;28;44736;-84
2023/08/17 04:01:47;;;;;;;2.20;2.00;;;25.00;61.20;;;;;;4917979;28;46701;-83
2023/08/17 04:04:13;;;;;;;2.75;2.47;;;25.00;61.20;;;;;;4909948;28;45462;-84
2023/08/17 04:06:40;;;;;;;2.78;1.98;;;25.00;61.20;;;;;;4907239;28;45614;-84
2023/08/17 04:09:06;;;;;;;2.53;2.00;;;25.00;61.20;;;;;;4888478;28;45609;-83
2023/08/17 04:11:33;;;;;;;2.40;2.20;;;25.00;61.20;;;;;;4887679;28;46992;-84
2023/08/17 04:13:59;;;;;;;2.50;2.15;;;24.90;61.10;;;;;;4925201;28;45353;-83
2023/08/17 04:16:24;;;;;;;2.38;2.10;;;25.00;61.20;;;;;;4926076;28;44903;-83
2023/08/17 04:18:50;;;;;;;2.78;1.92;;;24.90;61.10;;;;;;4934052;28;45424;-83
2023/08/17 04:21:15;;;;;;;2.22;2.00;;;24.90;61.30;;;;;;4918037;28;46181;-84
2023/08/17 04:23:41;;;;;;;2.95;2.08;;;25.00;61.20;;;;;;4902421;28;45251;-84
2023/08/17 04:26:06;;;;;;;3.63;2.38;;;24.90;61.10;;;;;;4907455;28;45249;-84
2023/08/17 04:28:32;;;;;;;2.92;2.25;;;25.00;61.20;;;;;;4896491;28;45171;-85
2023/08/17 04:30:58;;;;;;;2.45;2.03;;;24.90;61.10;;;;;;4925783;28;45280;-83
2023/08/17 04:33:23;;;;;;;3.72;2.30;;;24.90;61.10;;;;;;4918706;28;45532;-83
2023/08/17 04:35:49;;;;;;;3.15;2.03;;;24.90;61.10;;;;;;4884735;28;45566;-84
2023/08/17 04:38:14;;;;;;;2.67;2.22;;;24.90;61.10;;;;;;4903284;28;45632;-83
2023/08/17 04:40:40;;;;;;;3.08;2.25;;;24.90;61.10;;;;;;4919956;28;46665;-84
2023/08/17 04:43:05;;;;;;;2.63;2.30;;;25.00;61.10;;;;;;4901391;28;45328;-84
2023/08/17 04:45:31;;;;;;;2.70;2.40;;;24.90;61.10;;;;;;4903590;28;45170;-84
2023/08/17 04:47:56;;;;;;;2.42;2.15;;;25.00;61.20;;;;;;4919616;28;44743;-84
2023/08/17 04:50:22;;;;;;;2.97;2.47;;;24.90;61.10;;;;;;4913334;28;46941;-84
2023/08/17 04:52:47;;;;;;;2.88;1.92;;;24.90;61.10;;;;;;4899857;28;45047;-83
2023/08/17 04:55:13;;;;;;;2.70;2.45;;;24.90;61.10;;;;;;4912973;28;44660;-84
2023/08/17 04:57:39;;;;;;;2.45;2.22;;;25.00;61.20;;;;;;4920332;28;45638;-83
2023/08/17 05:00:09;;;;;;;3.75;2.17;;;24.90;61.10;;;;;;4884431;28;48254;-85
2023/08/17 05:02:35;;;;;;;2.42;2.00;;;24.90;61.10;;;;;;4897938;28;45341;-83
2023/08/17 05:05:06;;;;;;;2.10;1.90;;;24.90;61.20;;;;;;4934806;28;45314;-85
2023/08/17 05:07:31;;;;;;;2.58;2.20;;;24.90;61.10;;;;;;4935042;28;45469;-83
2023/08/17 05:09:57;;;;;;;2.10;1.90;;;24.90;61.10;;;;;;4939092;28;48353;-83
2023/08/17 05:12:22;;;;;;;2.53;2.28;;;24.90;61.10;;;;;;4948090;28;45259;-83
2023/08/17 05:14:48;;;;;;;2.40;2.08;;;24.90;61.20;;;;;;4923557;28;45032;-83
2023/08/17 05:17:14;;;;;;;2.25;1.80;;;24.90;61.10;;;;;;4936098;28;45339;-84
2023/08/17 05:19:41;;;;;;;2.65;2.03;;;24.90;61.10;;;;;;4956211;28;45643;-83
2023/08/17 05:22:10;;;;;;;3.78;2.47;;;24.90;61.10;;;;;;4925312;28;45547;-84
2023/08/17 05:24:35;;;;;;;2.28;2.08;;;24.90;61.10;;;;;;4909997;28;44793;-84
2023/08/17 05:27:01;;;;;;;2.40;2.20;;;24.90;61.10;;;;;;4942287;28;44917;-83
2023/08/17 05:29:26;;;;;;;3.28;1.90;;;24.90;61.10;;;;;;4907346;28;47252;-84
2023/08/17 05:31:52;;;;;;;2.15;1.70;;;24.90;61.10;;;;;;4935285;28;45524;-83
2023/08/17 05:34:18;;;;;;;2.00;1.85;;;24.90;61.10;;;;;;4946455;28;44893;-84
2023/08/17 05:36:43;;;;;;;2.05;1.85;;;24.90;61.10;;;;;;4933848;28;45282;-83
2023/08/17 05:39:09;;;;;;;2.30;2.10;;;24.90;61.10;;;;;;4928464;28;48195;-84
2023/08/17 05:41:35;;;;;;;4.25;2.47;;;24.90;61.20;;;;;;4922796;28;45185;-83
2023/08/17 05:44:00;;;;;;;2.58;2.17;;;24.90;61.10;;;;;;4904620;28;45623;-83
2023/08/17 05:46:26;;;;;;;2.20;2.00;;;24.90;61.10;;;;;;4936947;28;45372;-84
2023/08/17 05:48:51;;;;;;;2.55;2.10;;;24.90;61.10;;;;;;4938073;28;47328;-83
2023/08/17 05:51:17;;;;;;;2.63;2.38;;;24.90;61.10;;;;;;4922396;28;45340;-84
2023/08/17 05:53:42;;;;;;;2.50;2.25;;;24.90;61.10;;;;;;4959316;28;45769;-83
2023/08/17 05:56:08;;;;;;;2.65;1.98;;;24.90;61.10;;;;;;4922515;28;45121;-83
2023/08/17 05:58:33;;;;;;;4.55;2.60;;;24.90;61.10;;;;;;4937737;28;45561;-83
2023/08/17 06:01:09;;;;;;;2.60;2.35;;;24.90;61.10;;;;;;4918934;28;45187;-84
2023/08/17 06:03:35;;;;;;;2.30;2.10;;;24.90;61.00;;;;;;4939014;28;44898;-83
2023/08/17 06:06:01;;;;;;;3.00;2.33;;;24.90;61.10;;;;;;4939192;28;45399;-83
2023/08/17 06:08:27;;;;;;;2.67;2.10;;;24.90;61.10;;;;;;4956051;28;46468;-83
2023/08/17 06:10:52;;;;;;;3.85;2.45;;;24.90;61.10;;;;;;4039084;28;10000494;-82
2023/08/17 06:13:18;;;;;;;2.28;2.00;;;24.90;61.10;;;;;;4867235;28;45599;-83
2023/08/17 06:15:44;;;;;;;3.55;2.10;;;24.90;61.20;;;;;;4872052;28;44703;-85
2023/08/17 06:18:09;;;;;;;2.65;2.03;;;24.90;61.10;;;;;;4881461;29;45461;-84
2023/08/17 06:20:35;;;;;;;2.38;2.17;;;24.90;61.20;;;;;;4876563;28;45378;-84
2023/08/17 06:23:00;;;;;;;2.25;2.05;;;24.90;61.20;;;;;;4872036;29;45287;-84
2023/08/17 06:25:26;;;;;;;2.55;2.35;;;24.90;61.20;;;;;;4855736;29;45327;-84
2023/08/17 06:27:52;;;;;;;2.05;1.92;;;24.90;61.10;;;;;;4865815;29;45259;-84
2023/08/17 06:30:17;;;;;;;3.03;2.25;;;24.90;61.10;;;;;;4880243;29;45861;-84
2023/08/17 06:32:43;;;;;;;2.42;2.17;;;24.90;61.20;;;;;;4856876;29;45265;-83
2023/08/17 06:35:09;;;;;;;3.00;2.10;;;24.90;61.10;;;;;;4869705;29;45248;-85
2023/08/17 06:37:34;;;;;;;2.85;2.20;;;24.90;61.10;;;;;;4852012;28;45043;-83
2023/08/17 06:40:00;;;;;;;2.47;2.20;;;24.90;61.10;;;;;;4867436;29;44931;-83
2023/08/17 06:42:25;;;;;;;3.22;1.83;;;24.80;61.10;;;;;;4861704;28;46547;-84
2023/08/17 06:44:51;;;;;;;2.85;2.20;;;24.90;61.20;;;;;;4851731;29;45367;-84
2023/08/17 06:47:17;;;;;;;2.33;2.13;;;24.90;61.10;;;;;;4858820;28;45343;-83
2023/08/17 06:49:42;;;;;;;3.35;2.60;;;24.90;61.10;;;;;;4876974;29;44931;-83
2023/08/17 06:52:08;;;;;;;2.47;2.28;;;24.90;61.10;;;;;;4850205;29;45403;-84
2023/08/17 06:54:33;;;;;;;2.20;2.00;;;24.90;61.10;;;;;;4853637;29;45511;-83
2023/08/17 06:56:59;;;;;;;2.63;2.42;;;24.90;61.10;;;;;;4872291;29;45114;-84
2023/08/17 06:59:24;;;;;;;2.20;2.00;;;24.90;61.10;;;;;;4847372;29;44901;-84
2023/08/17 07:01:50;;;;;;;2.13;1.90;;;24.90;61.10;;;;;;4877225;28;45404;-83
2023/08/17 07:04:15;;;;;;;2.03;1.83;;;24.90;61.10;;;;;;4849445;29;45503;-83
2023/08/17 07:06:41;;;;;;;3.05;2.28;;;24.90;61.10;;;;;;4876012;28;45216;-84
2023/08/17 07:09:06;;;;;;;2.58;2.38;;;24.90;61.10;;;;;;4855332;29;45466;-83
2023/08/17 07:11:32;;;;;;;2.35;2.15;;;24.90;61.10;;;;;;4854198;29;45444;-83
2023/08/17 07:13:58;;;;;;;2.33;2.10;;;24.90;61.10;;;;;;4854595;29;45373;-84
2023/08/17 07:16:23;;;;;;;2.60;1.98;;;24.90;61.10;;;;;;4834245;28;44799;-83
2023/08/17 07:18:49;;;;;;;2.50;2.30;;;24.90;61.10;;;;;;4870721;29;45288;-83
2023/08/17 07:21:15;;;;;;;2.47;2.28;;;24.90;61.10;;;;;;4851085;29;46739;-82
2023/08/17 07:23:44;;;;;;;2.30;2.10;;;24.90;61.10;;;;;;4869999;29;45431;-83
2023/08/17 07:26:09;;;;;;;2.67;2.47;;;24.90;61.10;;;;;;4849625;29;45004;-83
2023/08/17 07:28:35;;;;;;;2.20;1.95;;;24.90;61.10;;;;;;4867778;29;45519;-83
2023/08/17 07:31:00;;;;;;;2.67;1.92;;;24.90;61.10;;;;;;4862799;29;45222;-84
2023/08/17 07:33:26;;;;;;;3.40;2.40;;;24.90;61.20;;;;;;4900833;28;45462;-83
2023/08/17 07:35:53;;;;;;;2.65;2.28;;;24.90;61.10;;;;;;4866276;29;45414;-83
2023/08/17 07:38:18;;;;;;;2.28;1.90;;;24.90;61.10;;;;;;4887872;29;45241;-83
2023/08/17 07:40:44;;;;;;;2.60;2.40;;;24.90;61.10;;;;;;4867119;29;45036;-83
2023/08/17 07:43:09;;;;;;;2.70;2.42;;;24.90;61.10;;;;;;4882744;28;45259;-83
2023/08/17 07:45:35;;;;;;;2.50;2.30;;;24.90;61.10;;;;;;4869958;28;45371;-83
2023/08/17 07:48:01;;;;;;;2.13;2.00;;;24.90;61.10;;;;;;4856357;28;45209;-83
2023/08/17 07:50:26;;;;;;;2.10;1.90;;;24.90;61.10;;;;;;4867360;29;45309;-85
2023/08/17 07:52:52;;;;;;;2.38;2.15;;;24.90;61.10;;;;;;4875215;28;45258;-83
2023/08/17 07:55:18;;;;;;;2.13;1.92;;;24.90;61.10;;;;;;4878528;29;45270;-83
2023/08/17 07:57:43;;;;;;;1.90;1.80;;;24.90;61.10;;;;;;4870966;28;45447;-83
2023/08/17 08:00:09;;;;;;;2.03;1.83;;;24.90;61.10;;;;;;4871132;28;45279;-85
2023/08/17 08:02:35;;;;;;;2.13;1.92;;;24.90;61.10;;;;;;4881963;28;44856;-84
2023/08/17 08:05:00;;;;;;;2.35;2.15;;;24.90;61.10;;;;;;4881427;29;45471;-83
2023/08/17 08:07:26;;;;;;;2.83;2.47;;;24.90;61.10;;;;;;4863005;29;45531;-83
2023/08/17 08:09:52;;;;;;;2.00;1.88;;;24.90;61.10;;;;;;4868845;28;46524;-83
2023/08/17 08:12:17;;;;;;;2.92;2.40;;;24.90;61.10;;;;;;4878945;29;45099;-83
2023/08/17 08:14:44;;;;;;;2.13;1.92;;;24.90;61.10;;;;;;4865132;28;45319;-83
2023/08/17 08:17:10;;;;;;;2.30;2.10;;;24.90;61.10;;;;;;4880699;29;45534;-84
2023/08/17 08:19:35;;;;;;;2.38;2.17;;;24.90;61.10;;;;;;4864979;28;46777;-84
2023/08/17 08:22:02;;;;;;;2.38;1.83;;;24.90;61.10;;;;;;4864212;29;45180;-83
2023/08/17 08:24:33;;;;;;;2.40;2.20;;;24.90;61.20;;;;;;4845783;29;45250;-83
2023/08/17 08:26:59;;;;;;;2.13;1.90;;;24.90;61.10;;;;;;4873365;28;45156;-85
2023/08/17 08:29:24;;;;;;;1.92;1.83;;;24.90;61.10;;;;;;4880711;28;46203;-83
2023/08/17 08:31:50;;;;;;;2.75;1.92;;;24.90;61.20;;;;;;4859918;28;45261;-84
2023/08/17 08:34:15;;;;;;;2.53;2.33;;;24.90;61.10;;;;;;4865939;29;46261;-83
2023/08/17 08:36:41;;;;;;;1.77;1.63;;;24.90;61.10;;;;;;4849883;29;46438;-84
2023/08/17 08:39:07;;;;;;;2.10;1.90;;;24.90;61.10;;;;;;4838917;28;47072;-83
2023/08/17 08:41:33;;;;;;;2.22;1.98;;;24.90;61.10;;;;;;4866558;28;45261;-84
2023/08/17 08:43:58;;;;;;;3.47;2.35;;;24.90;61.10;;;;;;4869560;29;45974;-83
2023/08/17 08:46:24;;;;;;;4.75;2.60;;;24.90;61.20;;;;;;4874884;29;45392;-84
2023/08/17 08:48:51;;;;;;;2.65;1.90;;;24.90;61.10;;;;;;4881903;29;46773;-85
2023/08/17 08:51:16;;;;;;;2.45;2.10;;;24.90;61.80;;;;;;4851241;29;45489;-84
2023/08/17 08:53:44;;;;;;;2.22;2.10;;;24.90;61.10;;;;;;4850771;28;45327;-84
2023/08/17 08:56:12;;;;;;;2.45;1.80;;;24.90;61.20;;;;;;4860810;28;46929;-84
2023/08/17 08:58:38;;;;;;;2.40;2.20;;;24.90;61.10;;;;;;4881703;29;47430;-84
2023/08/17 09:01:03;;;;;;;3.03;2.30;;;24.90;61.20;;;;;;4861227;28;45235;-84
2023/08/17 09:03:29;;;;;;;2.53;2.30;;;24.90;61.20;;;;;;4846660;28;45416;-84
2023/08/17 09:05:54;;;;;;;2.60;2.20;;;24.90;61.10;;;;;;4865137;29;45248;-85
2023/08/17 09:08:28;;;;;;;2.20;2.03;;;24.90;61.20;;;;;;4852833;29;48040;-84
2023/08/17 09:10:53;;;;;;;3.28;2.38;;;24.90;61.20;;;;;;4886083;28;45307;-84
2023/08/17 09:13:19;;;;;;;3.00;2.55;;;24.90;61.30;;;;;;4854072;29;45375;-85
2023/08/17 09:15:44;;;;;;;2.97;2.67;;;24.90;61.30;;;;;;4851743;29;45315;-87
2023/08/17 09:18:10;;;;;;;4.43;2.83;;;24.90;61.30;;;;;;4842104;29;47058;-85
2023/08/17 09:20:44;;;;;;;2.65;2.45;;;24.90;61.30;;;;;;4855463;28;44942;-85
2023/08/17 09:23:28;;;;;;;2.67;2.47;;;24.90;61.20;;;;;;4862110;29;45259;-88
2023/08/17 09:25:58;;;;;;;2.63;2.30;;;24.90;61.20;;;;;;4885109;28;45045;-85
2023/08/17 09:28:23;;;;;;;2.65;2.45;;;24.90;61.20;;;;;;4874569;28;46108;-85
2023/08/17 09:31:00;;;;;;;108.68;8.00;;;24.90;61.20;;;;;;4849319;29;45207;-85
2023/08/17 09:33:32;;;;;;;7.38;3.15;;;24.90;61.20;;;;;;4886993;29;45153;-85
2023/08/17 09:35:58;;;;;;;10.07;2.20;;;25.00;61.30;;;;;;4863228;28;45199;-86
2023/08/17 09:38:24;;;;;;;4.28;2.50;;;24.90;61.20;;;;;;4869851;28;47102;-85
2023/08/17 09:40:51;;;;;;;9.73;2.55;;;24.90;61.10;;;;;;4858780;28;45193;-85
2023/08/17 09:43:17;;;;;;;5.20;2.10;;;24.90;61.10;;;;;;4874097;28;45188;-84
2023/08/17 09:45:45;;;;;;;6.07;2.45;;;24.90;61.10;;;;;;4840453;28;45320;-85
2023/08/17 09:48:11;;;;;;;11.60;2.90;;;24.90;61.10;;;;;;4858854;29;46861;-85
2023/08/17 09:50:36;;;;;;;17.60;3.05;;;24.90;61.10;;;;;;4858758;28;45162;-84
2023/08/17 09:53:05;;;;;;;23.42;4.72;;;24.90;61.10;;;;;;4845284;28;45803;-85
2023/08/17 09:55:33;;;;;;;28.77;4.88;;;25.00;61.10;;;;;;4830613;28;44755;-85
2023/08/17 09:57:58;;;;;;;43.17;8.05;;;25.00;61.00;;;;;;4871163;29;47084;-85
2023/08/17 10:00:24;;;;;;;86.97;9.80;;;25.00;61.80;;;;;;4833358;28;45162;-87
2023/08/17 10:02:50;;;;;;;64.38;7.07;;;24.90;61.00;;;;;;4846975;29;45271;-85
2023/08/17 10:05:20;;;;;;;52.85;7.63;;;25.00;61.00;;;;;;4856099;29;44934;-85
2023/08/17 10:07:53;;;;;;;60.25;8.40;;;25.00;61.00;;;;;;4880850;28;45522;-85
2023/08/17 10:10:22;;;;;;;66.32;8.85;;;25.00;61.70;;;;;;4895024;28;45246;-87
2023/08/17 10:13:10;;;;;;;88.95;12.07;;;25.00;61.70;;;;;;4854937;29;45226;-85
2023/08/17 10:15:38;;;;;;;94.18;12.20;;;25.00;60.80;;;;;;4869024;28;44735;-86
2023/08/17 10:18:18;;;;;;;120.57;14.93;;;25.00;60.90;;;;;;4846815;29;47101;-85
2023/08/17 10:20:48;;;;;;;113.72;15.20;;;25.00;60.90;;;;;;4878776;29;45786;-86
2023/08/17 10:23:17;;;;;;;147.40;19.33;;;25.00;60.90;;;;;;4850763;29;45381;-85
2023/08/17 10:25:43;;;;;;;101.28;15.18;;;25.00;60.80;;;;;;4851952;28;44981;-86
2023/08/17 10:28:10;;;;;;;132.45;18.15;;;25.00;60.80;;;;;;4860383;29;47526;-85
2023/08/17 10:30:39;;;;;;;142.75;18.05;;;25.00;60.80;;;;;;4863492;28;45219;-85
2023/08/17 10:33:05;;;;;;;164.50;23.75;;;25.00;60.90;;;;;;4880979;29;45115;-85
2023/08/17 10:35:32;;;;;;;152.35;20.10;;;25.00;60.80;;;;;;4845627;29;45726;-87
2023/08/17 10:37:57;;;;;;;150.20;21.55;;;25.00;60.80;;;;;;4856685;29;46227;-85
2023/08/17 10:40:34;;;;;;;156.82;22.20;;;25.00;60.80;;;;;;4884687;29;45420;-85
2023/08/17 10:43:00;;;;;;;186.98;24.23;;;25.10;60.80;;;;;;4869863;29;44744;-85
2023/08/17 10:45:30;;;;;;;232.68;31.55;;;25.00;60.80;;;;;;4867813;29;45300;-86
2023/08/17 10:48:08;;;;;;;162.60;25.33;;;25.10;60.80;;;;;;4855499;29;47174;-85
2023/08/17 10:50:34;;;;;;;200.32;28.95;;;25.10;60.80;;;;;;4878034;28;45299;-85
2023/08/17 10:53:11;;;;;;;196.85;25.40;;;25.10;60.80;;;;;;4873926;29;45170;-85
2023/08/17 10:55:40;;;;;;;198.57;27.02;;;25.00;60.70;;;;;;4857632;28;44737;-86
2023/08/17 10:58:10;;;;;;;171.20;26.58;;;25.10;60.80;;;;;;4874145;29;45553;-86
2023/08/17 11:00:36;;;;;;;197.90;29.08;;;25.10;60.80;;;;;;4871359;29;46112;-86
2023/08/17 11:03:09;;;;;;;221.80;31.63;;;25.10;60.80;;;;;;4861505;29;45455;-86
2023/08/17 11:05:38;;;;;;;222.98;31.20;;;25.00;60.70;;;;;;4879887;29;45028;-85
2023/08/17 11:08:19;;;;;;;204.50;30.17;;;25.10;60.80;;;;;;4906823;28;45730;-86
2023/08/17 11:11:08;;;;;;;227.68;31.48;;;25.10;61.50;;;;;;4879317;28;45307;-86
2023/08/17 11:13:38;;;;;;;207.70;31.75;;;25.10;60.70;;;;;;4884469;29;44703;-86
2023/08/17 11:16:04;;;;;;;231.05;32.20;;;25.10;60.70;;;;;;4873757;28;45376;-85
2023/08/17 11:18:30;;;;;;;213.77;34.05;;;25.10;60.70;;;;;;4878878;29;46780;-86
2023/08/17 11:20:56;;;;;;;227.68;33.90;;;25.10;60.70;;;;;;4875378;28;45329;-85
2023/08/17 11:23:22;;;;;;;247.75;37.22;;;25.10;60.70;;;;;;4865256;29;44733;-86
2023/08/17 11:25:48;;;;;;;262.05;37.47;;;25.10;60.70;;;;;;4892716;28;44778;-85
2023/08/17 11:28:14;;;;;;;244.98;36.80;;;25.10;60.70;;;;;;4860838;29;47441;-86
2023/08/17 11:30:40;;;;;;;244.20;35.08;;;25.10;60.70;;;;;;4870945;28;45130;-88
2023/08/17 11:33:05;;;;;;;259.35;38.97;;;25.10;60.70;;;;;;4861378;29;45339;-84
2023/08/17 11:35:31;;;;;;;278.00;39.97;;;25.20;60.70;;;;;;4870581;29;45145;-86
2023/08/17 11:37:56;;;;;;;239.80;37.20;;;25.10;60.60;;;;;;4875133;28;46647;-86
2023/08/17 11:40:22;;;;;;;260.42;37.83;;;25.20;60.80;;;;;;4860961;28;45884;-86
2023/08/17 11:42:48;;;;;;;264.40;40.72;;;25.20;60.70;;;;;;4863096;28;45271;-85
2023/08/17 11:45:14;;;;;;;271.35;41.70;;;25.20;60.70;;;;;;4847617;29;46048;-87
2023/08/17 11:47:40;;;;;;;292.50;41.25;;;25.20;60.80;;;;;;4905880;28;46632;-85
2023/08/17 11:50:06;;;;;;;263.35;40.60;;;25.20;60.70;;;;;;4891697;28;45924;-87
2023/08/17 11:52:32;;;;;;;270.40;41.55;;;25.10;60.60;;;;;;4861933;29;45196;-86
2023/08/17 11:54:59;;;;;;;298.77;43.75;;;25.10;60.60;;;;;;4859597;28;45880;-85
2023/08/17 11:57:25;;;;;;;278.65;43.63;;;25.20;60.70;;;;;;4872593;29;45468;-86
2023/08/17 11:59:55;;;;;;;293.17;44.08;;;25.20;60.70;;;;;;4860934;28;45210;-85
2023/08/17 12:02:21;;;;;;;323.88;47.75;;;25.20;60.80;;;;;;4868823;28;44955;-86
2023/08/17 12:04:46;;;;;;;296.30;45.08;;;25.20;60.70;;;;;;4877469;28;45561;-86
2023/08/17 12:07:12;;;;;;;285.45;46.65;;;25.20;60.70;;;;;;4859033;29;47293;-84
2023/08/17 12:09:38;;;;;;;297.48;46.53;;;25.20;60.70;;;;;;4857768;28;45180;-86
2023/08/17 12:12:04;;;;;;;302.45;47.05;;;25.20;60.70;;;;;;4866399;28;44764;-84
2023/08/17 12:14:29;;;;;;;297.92;47.38;;;25.20;60.70;;;;;;4872038;29;45446;-83
2023/08/17 12:16:55;;;;;;;288.17;46.22;;;25.20;60.70;;;;;;4860063;29;46848;-84
2023/08/17 12:19:21;;;;;;;295.83;47.55;;;25.20;60.70;;;;;;4885100;29;45454;-84
2023/08/17 12:21:48;;;;;;;318.13;48.67;;;25.20;60.70;;;;;;4893559;28;45636;-84
2023/08/17 12:24:14;;;;;;;302.10;47.63;;;25.20;60.70;;;;;;4863568;29;45359;-84
2023/08/17 12:26:43;;;;;;;318.52;48.88;;;25.20;60.70;;;;;;4882136;29;47092;-85
2023/08/17 12:29:09;;;;;;;300.27;49.80;;;25.20;60.70;;;;;;4868887;29;45525;-84
2023/08/17 12:31:35;;;;;;;320.30;51.55;;;25.20;60.60;;;;;;4857625;28;45155;-85
2023/08/17 12:34:00;;;;;;;287.85;49.13;;;25.20;60.70;;;;;;4861859;28;45664;-84
2023/08/17 12:36:26;;;;;;;307.58;46.22;;;25.20;60.70;;;;;;4898190;28;46794;-85
2023/08/17 12:38:52;;;;;;;300.17;47.65;;;25.20;60.70;;;;;;4899649;28;45536;-85
2023/08/17 12:41:17;;;;;;;334.58;53.08;;;25.20;60.60;;;;;;4880611;28;45006;-85
2023/08/17 12:43:43;;;;;;;335.20;49.78;;;25.20;60.70;;;;;;4865699;28;45341;-84
2023/08/17 12:46:09;;;;;;;360.15;56.50;;;25.20;60.70;;;;;;4862483;29;45359;-84
2023/08/17 12:48:34;;;;;;;326.75;52.60;;;25.20;60.70;;;;;;4872875;29;47102;-84
2023/08/17 12:51:00;;;;;;;333.08;52.50;;;25.20;60.70;;;;;;4876361;28;45205;-84
2023/08/17 12:53:25;;;;;;;332.20;52.70;;;25.20;60.60;;;;;;4876368;29;45532;-85
2023/08/17 12:55:51;;;;;;;349.48;56.75;;;25.20;60.60;;;;;;4890333;28;47045;-85
2023/08/17 12:58:16;;;;;;;369.50;58.20;;;25.20;60.60;;;;;;4866178;29;45121;-84
2023/08/17 13:00:42;;;;;;;339.95;54.33;;;25.20;60.60;;;;;;4852107;28;45182;-85
2023/08/17 13:03:08;;;;;;;357.00;56.65;;;25.30;60.70;;;;;;4897989;28;45327;-85
2023/08/17 13:05:33;;;;;;;317.52;54.17;;;25.30;60.70;;;;;;4883701;29;46290;-83
2023/08/17 13:07:59;;;;;;;359.20;58.97;;;25.30;60.70;;;;;;4869700;29;45243;-84
2023/08/17 13:10:24;;;;;;;345.70;56.50;;;25.20;60.60;;;;;;4865142;29;45567;-84
2023/08/17 13:12:54;;;;;;;368.70;56.88;;;25.20;60.60;;;;;;4839758;28;45634;-85
2023/08/17 13:15:21;;;;;;;343.73;56.10;;;25.30;60.70;;;;;;4880419;28;47127;-86
2023/08/17 13:17:46;;;;;;;357.17;56.92;;;25.30;60.70;;;;;;4853182;28;44937;-85
2023/08/17 13:20:12;;;;;;;349.58;57.38;;;25.30;60.70;;;;;;4870471;29;45484;-84
2023/08/17 13:22:38;;;;;;;396.55;59.65;;;25.30;60.80;;;;;;4852928;28;45669;-84
2023/08/17 13:25:04;;;;;;;336.35;57.92;;;25.30;60.70;;;;;;4873624;28;47453;-86
2023/08/17 13:30:14;;;;;;;360.00;58.33;;;25.20;60.60;;;;;;4870711;28;45509;-85
2023/08/17 13:32:41;;;;;;;361.20;57.47;;;25.20;60.70;;;;;;4874348;29;44720;-84
2023/08/17 13:35:06;;;;;;;349.70;57.75;;;25.30;60.70;;;;;;4840844;28;47601;-86
2023/08/17 13:37:32;;;;;;;386.65;62.35;;;25.30;60.70;;;;;;4837675;29;45272;-85
2023/08/17 13:39:58;;;;;;;367.80;61.75;;;25.30;60.70;;;;;;4861367;28;45245;-84
2023/08/17 13:42:24;;;;;;;373.60;59.90;;;25.30;60.70;;;;;;4874059;28;45220;-85
2023/08/17 13:44:49;;;;;;;340.73;59.65;;;25.30;60.80;;;;;;4859975;28;47411;-84
2023/08/17 13:47:15;;;;;;;334.20;57.50;;;25.30;60.70;;;;;;4887303;29;45331;-85
2023/08/17 13:49:40;;;;;;;365.27;60.83;;;25.30;60.70;;;;;;4894819;28;45334;-84
2023/08/17 13:52:06;;;;;;;358.73;62.30;;;25.30;60.70;;;;;;4890940;28;45666;-84
2023/08/17 13:54:32;;;;;;;366.35;59.97;;;25.30;60.70;;;;;;4863016;29;47518;-84
2023/08/17 13:56:57;;;;;;;372.77;61.50;;;25.30;60.70;;;;;;4869143;28;45119;-84
2023/08/17 13:59:23;;;;;;;383.02;60.70;;;25.30;60.70;;;;;;4862505;29;44938;-84
2023/08/17 14:01:48;;;;;;;353.88;63.40;;;25.30;60.70;;;;;;4878998;28;46391;-85
2023/08/17 14:04:15;;;;;;;361.77;63.33;;;25.30;60.70;;;;;;4876536;28;46486;-84
2023/08/17 14:06:41;;;;;;;365.08;63.83;;;25.30;60.70;;;;;;4874655;29;45405;-84
2023/08/17 14:09:06;;;;;;;363.20;62.25;;;25.30;60.70;;;;;;4876068;28;44693;-84
2023/08/17 14:11:32;;;;;;;353.40;60.65;;;25.30;60.70;;;;;;4878711;28;45225;-84
2023/08/17 14:13:57;;;;;;;351.90;62.00;;;25.30;60.70;;;;;;4872391;28;46800;-84
2023/08/17 14:16:23;;;;;;;350.02;60.70;;;25.30;60.70;;;;;;4848696;29;47518;-84
2023/08/17 14:18:49;;;;;;;366.33;62.00;;;25.30;60.70;;;;;;4871400;29;45431;-86
2023/08/17 14:21:14;;;;;;;383.08;62.65;;;25.30;60.80;;;;;;4872863;29;45904;-84
2023/08/17 14:23:40;;;;;;;356.25;59.90;;;25.30;60.80;;;;;;4853685;29;47079;-85
2023/08/17 14:26:06;;;;;;;370.55;62.63;;;25.30;60.70;;;;;;4881853;28;45329;-84
2023/08/17 14:28:31;;;;;;;389.80;65.55;;;25.30;60.70;;;;;;4886110;29;44751;-85
2023/08/17 14:30:57;;;;;;;383.02;63.92;;;25.30;60.80;;;;;;4854478;28;45464;-84
2023/08/17 14:33:22;;;;;;;355.23;60.70;;;25.30;60.80;;;;;;4856313;29;47668;-84
2023/08/17 14:35:48;;;;;;;354.92;59.53;;;25.30;60.80;;;;;;4886401;29;45228;-84
2023/08/17 14:38:14;;;;;;;378.67;63.67;;;25.30;60.80;;;;;;4856657;28;44982;-84
2023/08/17 14:40:43;;;;;;;360.05;62.65;;;25.40;60.80;;;;;;4868612;29;44764;-84
2023/08/17 14:43:11;;;;;;;361.75;63.67;;;25.40;60.80;;;;;;4890387;28;47431;-85
2023/08/17 14:45:37;;;;;;;359.80;63.85;;;25.40;60.90;;;;;;4889598;29;45123;-85
2023/08/17 14:48:03;;;;;;;388.50;63.17;;;25.40;60.90;;;;;;4854857;29;45058;-84
2023/08/17 14:50:29;;;;;;;359.85;63.80;;;25.40;60.90;;;;;;4855055;29;45257;-85
2023/08/17 14:52:54;;;;;;;378.77;65.00;;;25.40;60.80;;;;;;4856598;28;47891;-84
2023/08/17 14:55:20;;;;;;;363.50;64.55;;;25.40;60.80;;;;;;4907795;28;45293;-84
2023/08/17 14:57:45;;;;;;;396.60;66.25;;;25.40;60.80;;;;;;4892818;29;45553;-86
2023/08/17 15:00:11;;;;;;;395.52;70.40;;;25.40;60.80;;;;;;4898774;28;44818;-86
2023/08/17 15:02:37;;;;;;;381.05;65.95;;;25.40;60.90;;;;;;4856335;28;47328;-84
2023/08/17 15:05:06;;;;;;;365.25;65.40;;;25.30;60.70;;;;;;4891085;29;44866;-88
2023/08/17 15:07:32;;;;;;;378.65;63.35;;;25.40;60.80;;;;;;4887114;29;45270;-85
2023/08/17 15:09:57;;;;;;;374.77;66.32;;;25.40;60.80;;;;;;4860738;28;44824;-85
2023/08/17 15:12:23;;;;;;;395.05;64.65;;;25.40;60.80;;;;;;4859098;29;46579;-85
2023/08/17 15:14:48;;;;;;;393.05;65.45;;;25.40;60.90;;;;;;4892623;29;45328;-84
2023/08/17 15:17:14;;;;;;;378.35;64.88;;;25.40;60.80;;;;;;4879029;28;45264;-86
2023/08/17 15:19:58;;;;;;;358.38;64.13;;;25.40;60.80;;;;;;4870179;29;45366;-86
2023/08/17 15:22:30;;;;;;;374.58;64.82;;;25.40;60.80;;;;;;4871176;29;46973;-86
2023/08/17 15:24:55;;;;;;;410.05;71.15;;;25.40;60.70;;;;;;4856091;28;45346;-85
2023/08/17 15:30:11;;;;;;;361.67;62.95;;;25.40;60.80;;;;;;4876929;28;44673;-87
2023/08/17 15:32:37;;;;;;;366.15;65.97;;;25.40;60.80;;;;;;4857077;28;46695;-85
2023/08/17 15:35:03;;;;;;;355.33;64.25;;;25.40;60.80;;;;;;4852873;29;45563;-87